sensor_id;sensor_type;location;lat;lon;timestamp;temperature;humidity
24382;DHT22;12502;50.678;7.172;2023-06-04T00:02:30;14.30;99.00
24382;DHT22;12502;50.678;7.172;2023-06-04T00:07:32;14.10;98.80
24382;DHT22;12502;50.678;7.172;2023-06-04T00:12:34;14.00;99.90
24382;DHT22;12502;50.678;7.172;2023-06-04T00:17:36;14.10;99.90
24382;DHT22;12502;50.678;7.172;2023-06-04T00:22:37;14.00;99.90
24382;DHT22;12502;50.678;7.172;2023-06-04T00:27:39;13.90;99.90
24382;DHT22;12502;50.678;7.172;2023-06-04T00:32:41;14.10;99.90
24382;DHT22;12502;50.678;7.172;2023-06-04T00:37:42;14.00;99.90
24382;DHT22;12502;50.678;7.172;2023-06-04T00:42:44;13.80;99.90
24382;DHT22;12502;50.678;7.172;2023-06-04T00:47:46;13.90;99.90
24382;DHT22;12502;50.678;7.172;2023-06-04T00:52:48;13.90;99.90
24382;DHT22;12502;50.678;7.172;2023-06-04T00:57:50;13.70;99.90
24382;DHT22;12502;50.678;7.172;2023-06-04T01:02:52;13.60;99.90
24382;DHT22;12502;50.678;7.172;2023-06-04T01:07:55;13.30;99.90
24382;DHT22;12502;50.678;7.172;2023-06-04T01:12:58;13.10;99.90
24382;DHT22;12502;50.678;7.172;2023-06-04T01:18:00;12.80;99.90
24382;DHT22;12502;50.678;7.172;2023-06-04T01:28:08;12.50;99.90
24382;DHT22;12502;50.678;7.172;2023-06-04T01:33:12;12.40;99.90
24382;DHT22;12502;50.678;7.172;2023-06-04T01:38:14;12.20;99.90
24382;DHT22;12502;50.678;7.172;2023-06-04T01:43:16;12.20;99.90
24382;DHT22;12502;50.678;7.172;2023-06-04T01:48:18;11.90;99.90
24382;DHT22;12502;50.678;7.172;2023-06-04T01:53:19;11.70;99.90
24382;DHT22;12502;50.678;7.172;2023-06-04T01:58:21;11.70;99.90
24382;DHT22;12502;50.678;7.172;2023-06-04T02:03:24;11.70;99.90
24382;DHT22;12502;50.678;7.172;2023-06-04T02:08:26;11.60;99.90
24382;DHT22;12502;50.678;7.172;2023-06-04T02:13:28;11.40;99.90
24382;DHT22;12502;50.678;7.172;2023-06-04T02:18:30;11.40;99.90
24382;DHT22;12502;50.678;7.172;2023-06-04T02:23:32;11.10;99.90
24382;DHT22;12502;50.678;7.172;2023-06-04T02:28:33;11.30;99.90
24382;DHT22;12502;50.678;7.172;2023-06-04T02:33:35;11.20;99.90
24382;DHT22;12502;50.678;7.172;2023-06-04T02:38:36;11.10;99.90
24382;DHT22;12502;50.678;7.172;2023-06-04T02:43:38;11.00;99.90
24382;DHT22;12502;50.678;7.172;2023-06-04T02:48:40;10.70;99.90
24382;DHT22;12502;50.678;7.172;2023-06-04T02:53:41;10.80;99.90
24382;DHT22;12502;50.678;7.172;2023-06-04T02:58:50;10.60;99.90
24382;DHT22;12502;50.678;7.172;2023-06-04T03:03:52;10.70;99.90
24382;DHT22;12502;50.678;7.172;2023-06-04T03:08:53;10.40;99.90
24382;DHT22;12502;50.678;7.172;2023-06-04T03:13:55;10.20;99.90
24382;DHT22;12502;50.678;7.172;2023-06-04T03:18:58;10.10;99.90
24382;DHT22;12502;50.678;7.172;2023-06-04T03:24:01;10.10;99.90
24382;DHT22;12502;50.678;7.172;2023-06-04T03:29:02;10.30;99.90
24382;DHT22;12502;50.678;7.172;2023-06-04T03:34:04;9.90;99.90
24382;DHT22;12502;50.678;7.172;2023-06-04T03:39:06;10.00;99.90
24382;DHT22;12502;50.678;7.172;2023-06-04T03:44:08;10.20;99.90
24382;DHT22;12502;50.678;7.172;2023-06-04T03:49:09;9.90;99.90
24382;DHT22;12502;50.678;7.172;2023-06-04T03:54:12;9.90;99.90
24382;DHT22;12502;50.678;7.172;2023-06-04T03:59:15;10.00;99.90
24382;DHT22;12502;50.678;7.172;2023-06-04T04:04:17;10.00;99.90
24382;DHT22;12502;50.678;7.172;2023-06-04T04:09:19;10.00;99.90
24382;DHT22;12502;50.678;7.172;2023-06-04T04:14:21;10.20;99.90
24382;DHT22;12502;50.678;7.172;2023-06-04T04:19:24;10.00;99.90
24382;DHT22;12502;50.678;7.172;2023-06-04T04:24:26;10.20;99.90
24382;DHT22;12502;50.678;7.172;2023-06-04T04:29:28;10.20;99.90
24382;DHT22;12502;50.678;7.172;2023-06-04T04:34:34;10.40;99.90
24382;DHT22;12502;50.678;7.172;2023-06-04T04:39:35;10.40;99.90
24382;DHT22;12502;50.678;7.172;2023-06-04T04:44:38;10.80;99.90
24382;DHT22;12502;50.678;7.172;2023-06-04T04:49:40;10.70;99.90
24382;DHT22;12502;50.678;7.172;2023-06-04T04:54:41;10.80;99.90
24382;DHT22;12502;50.678;7.172;2023-06-04T04:59:43;11.10;99.90
24382;DHT22;12502;50.678;7.172;2023-06-04T05:04:44;11.10;99.90
24382;DHT22;12502;50.678;7.172;2023-06-04T05:09:46;11.30;99.90
24382;DHT22;12502;50.678;7.172;2023-06-04T05:14:48;11.40;99.90
24382;DHT22;12502;50.678;7.172;2023-06-04T05:19:49;11.40;99.90
24382;DHT22;12502;50.678;7.172;2023-06-04T05:24:51;11.50;99.90
24382;DHT22;12502;50.678;7.172;2023-06-04T05:29:53;11.70;99.90
24382;DHT22;12502;50.678;7.172;2023-06-04T05:34:54;11.80;99.90
24382;DHT22;12502;50.678;7.172;2023-06-04T05:40:00;11.90;99.90
24382;DHT22;12502;50.678;7.172;2023-06-04T05:45:01;12.10;99.90
24382;DHT22;12502;50.678;7.172;2023-06-04T05:50:03;12.20;99.90
24382;DHT22;12502;50.678;7.172;2023-06-04T05:55:05;12.40;99.90
24382;DHT22;12502;50.678;7.172;2023-06-04T06:00:09;12.70;99.90
24382;DHT22;12502;50.678;7.172;2023-06-04T06:05:11;12.90;99.90
24382;DHT22;12502;50.678;7.172;2023-06-04T06:10:13;13.00;99.90
24382;DHT22;12502;50.678;7.172;2023-06-04T06:15:16;13.20;99.90
24382;DHT22;12502;50.678;7.172;2023-06-04T06:20:18;13.40;99.90
24382;DHT22;12502;50.678;7.172;2023-06-04T06:25:20;13.50;99.90
24382;DHT22;12502;50.678;7.172;2023-06-04T06:30:21;13.70;99.90
24382;DHT22;12502;50.678;7.172;2023-06-04T06:35:24;13.80;99.90
24382;DHT22;12502;50.678;7.172;2023-06-04T06:40:25;14.00;99.90
24382;DHT22;12502;50.678;7.172;2023-06-04T06:45:27;14.20;99.90
24382;DHT22;12502;50.678;7.172;2023-06-04T06:50:29;14.40;99.90
24382;DHT22;12502;50.678;7.172;2023-06-04T06:55:30;14.80;99.90
24382;DHT22;12502;50.678;7.172;2023-06-04T07:00:32;14.80;99.90
24382;DHT22;12502;50.678;7.172;2023-06-04T07:05:34;15.10;99.90
24382;DHT22;12502;50.678;7.172;2023-06-04T07:10:36;15.00;99.90
24382;DHT22;12502;50.678;7.172;2023-06-04T07:15:37;15.10;99.90
24382;DHT22;12502;50.678;7.172;2023-06-04T07:20:40;15.40;99.90
24382;DHT22;12502;50.678;7.172;2023-06-04T07:25:41;15.30;99.90
24382;DHT22;12502;50.678;7.172;2023-06-04T07:30:45;15.60;99.90
24382;DHT22;12502;50.678;7.172;2023-06-04T07:35:46;15.90;99.90
24382;DHT22;12502;50.678;7.172;2023-06-04T07:40:48;16.20;99.90
24382;DHT22;12502;50.678;7.172;2023-06-04T07:45:50;16.40;99.90
24382;DHT22;12502;50.678;7.172;2023-06-04T07:50:52;16.70;99.90
24382;DHT22;12502;50.678;7.172;2023-06-04T07:55:53;16.70;99.60
24382;DHT22;12502;50.678;7.172;2023-06-04T08:00:55;17.10;99.90
24382;DHT22;12502;50.678;7.172;2023-06-04T08:05:57;17.00;98.80
24382;DHT22;12502;50.678;7.172;2023-06-04T08:10:58;17.10;98.60
24382;DHT22;12502;50.678;7.172;2023-06-04T08:16:00;17.50;99.10
24382;DHT22;12502;50.678;7.172;2023-06-04T08:21:02;17.60;96.60
24382;DHT22;12502;50.678;7.172;2023-06-04T08:26:04;17.90;97.10
24382;DHT22;12502;50.678;7.172;2023-06-04T08:31:08;18.20;95.40
24382;DHT22;12502;50.678;7.172;2023-06-04T08:36:10;18.40;93.80
24382;DHT22;12502;50.678;7.172;2023-06-04T08:41:15;18.50;94.40
24382;DHT22;12502;50.678;7.172;2023-06-04T08:46:19;18.80;93.30
24382;DHT22;12502;50.678;7.172;2023-06-04T08:51:21;19.00;91.90
24382;DHT22;12502;50.678;7.172;2023-06-04T08:56:23;19.10;90.30
24382;DHT22;12502;50.678;7.172;2023-06-04T09:01:25;19.20;90.30
24382;DHT22;12502;50.678;7.172;2023-06-04T09:06:27;19.60;88.20
24382;DHT22;12502;50.678;7.172;2023-06-04T09:17:00;20.10;83.00
24382;DHT22;12502;50.678;7.172;2023-06-04T09:22:02;20.70;82.30
24382;DHT22;12502;50.678;7.172;2023-06-04T09:27:10;20.40;79.00
24382;DHT22;12502;50.678;7.172;2023-06-04T09:32:14;20.50;80.30
24382;DHT22;12502;50.678;7.172;2023-06-04T09:37:16;20.90;79.40
24382;DHT22;12502;50.678;7.172;2023-06-04T09:42:21;20.90;76.40
24382;DHT22;12502;50.678;7.172;2023-06-04T09:47:25;21.20;75.50
24382;DHT22;12502;50.678;7.172;2023-06-04T09:52:33;21.40;77.90
24382;DHT22;12502;50.678;7.172;2023-06-04T09:57:35;21.40;75.20
24382;DHT22;12502;50.678;7.172;2023-06-04T10:02:40;21.30;73.60
24382;DHT22;12502;50.678;7.172;2023-06-04T10:07:43;21.60;75.60
24382;DHT22;12502;50.678;7.172;2023-06-04T10:12:50;21.70;72.50
24382;DHT22;12502;50.678;7.172;2023-06-04T10:17:53;21.70;72.20
24382;DHT22;12502;50.678;7.172;2023-06-04T10:22:55;22.00;71.60
24382;DHT22;12502;50.678;7.172;2023-06-04T10:27:57;22.20;71.30
24382;DHT22;12502;50.678;7.172;2023-06-04T10:32:59;22.10;72.80
24382;DHT22;12502;50.678;7.172;2023-06-04T10:38:08;22.30;71.30
24382;DHT22;12502;50.678;7.172;2023-06-04T10:43:10;22.20;69.30
24382;DHT22;12502;50.678;7.172;2023-06-04T10:48:12;22.20;67.60
24382;DHT22;12502;50.678;7.172;2023-06-04T10:53:15;22.20;65.00
24382;DHT22;12502;50.678;7.172;2023-06-04T10:58:16;22.20;68.00
24382;DHT22;12502;50.678;7.172;2023-06-04T11:03:19;22.20;68.60
24382;DHT22;12502;50.678;7.172;2023-06-04T11:08:29;22.40;64.90
24382;DHT22;12502;50.678;7.172;2023-06-04T11:13:30;22.50;65.30
24382;DHT22;12502;50.678;7.172;2023-06-04T11:18:32;22.60;66.30
24382;DHT22;12502;50.678;7.172;2023-06-04T11:23:34;22.70;66.10
24382;DHT22;12502;50.678;7.172;2023-06-04T11:28:35;22.90;66.20
24382;DHT22;12502;50.678;7.172;2023-06-04T11:33:44;23.10;62.10
24382;DHT22;12502;50.678;7.172;2023-06-04T11:38:53;22.90;61.20
24382;DHT22;12502;50.678;7.172;2023-06-04T11:43:55;22.80;64.50
24382;DHT22;12502;50.678;7.172;2023-06-04T11:48:57;22.90;60.90
24382;DHT22;12502;50.678;7.172;2023-06-04T11:53:58;22.70;61.80
24382;DHT22;12502;50.678;7.172;2023-06-04T11:59:00;23.10;62.20
24382;DHT22;12502;50.678;7.172;2023-06-04T12:04:10;22.90;60.50
24382;DHT22;12502;50.678;7.172;2023-06-04T12:09:19;23.20;60.60
24382;DHT22;12502;50.678;7.172;2023-06-04T12:14:22;23.50;59.40
24382;DHT22;12502;50.678;7.172;2023-06-04T12:19:25;23.20;60.40
24382;DHT22;12502;50.678;7.172;2023-06-04T12:24:28;23.30;59.90
24382;DHT22;12502;50.678;7.172;2023-06-04T12:29:29;23.20;58.80
24382;DHT22;12502;50.678;7.172;2023-06-04T12:34:31;23.20;59.60
24382;DHT22;12502;50.678;7.172;2023-06-04T12:39:33;23.30;59.50
24382;DHT22;12502;50.678;7.172;2023-06-04T12:44:35;23.60;57.10
24382;DHT22;12502;50.678;7.172;2023-06-04T12:49:37;24.10;57.40
24382;DHT22;12502;50.678;7.172;2023-06-04T12:54:39;23.50;56.60
24382;DHT22;12502;50.678;7.172;2023-06-04T12:59:41;23.60;58.70
24382;DHT22;12502;50.678;7.172;2023-06-04T13:04:42;23.90;56.90
24382;DHT22;12502;50.678;7.172;2023-06-04T13:09:47;23.90;57.10
24382;DHT22;12502;50.678;7.172;2023-06-04T13:14:49;24.30;58.70
24382;DHT22;12502;50.678;7.172;2023-06-04T13:19:51;24.20;58.50
24382;DHT22;12502;50.678;7.172;2023-06-04T13:24:53;24.40;57.40
24382;DHT22;12502;50.678;7.172;2023-06-04T13:29:54;24.50;58.80
24382;DHT22;12502;50.678;7.172;2023-06-04T13:34:56;24.50;57.60
24382;DHT22;12502;50.678;7.172;2023-06-04T13:39:58;24.50;57.90
24382;DHT22;12502;50.678;7.172;2023-06-04T13:44:59;24.40;55.60
24382;DHT22;12502;50.678;7.172;2023-06-04T13:50:01;24.20;56.30
24382;DHT22;12502;50.678;7.172;2023-06-04T13:55:03;24.40;57.40
24382;DHT22;12502;50.678;7.172;2023-06-04T14:00:05;24.40;56.60
24382;DHT22;12502;50.678;7.172;2023-06-04T14:05:08;24.80;56.20
24382;DHT22;12502;50.678;7.172;2023-06-04T14:10:10;24.60;56.60
24382;DHT22;12502;50.678;7.172;2023-06-04T14:15:12;24.80;56.50
24382;DHT22;12502;50.678;7.172;2023-06-04T14:20:14;24.90;57.90
24382;DHT22;12502;50.678;7.172;2023-06-04T14:25:15;24.30;56.30
24382;DHT22;12502;50.678;7.172;2023-06-04T14:30:17;24.60;57.50
24382;DHT22;12502;50.678;7.172;2023-06-04T14:35:19;24.90;57.40
24382;DHT22;12502;50.678;7.172;2023-06-04T14:40:20;24.60;58.00
24382;DHT22;12502;50.678;7.172;2023-06-04T14:45:22;24.80;58.00
24382;DHT22;12502;50.678;7.172;2023-06-04T14:50:23;24.80;57.60
24382;DHT22;12502;50.678;7.172;2023-06-04T14:55:26;24.60;57.60
24382;DHT22;12502;50.678;7.172;2023-06-04T15:00:27;24.80;57.80
24382;DHT22;12502;50.678;7.172;2023-06-04T15:05:30;24.70;58.80
24382;DHT22;12502;50.678;7.172;2023-06-04T15:10:32;24.80;58.40
24382;DHT22;12502;50.678;7.172;2023-06-04T15:15:35;24.90;57.90
24382;DHT22;12502;50.678;7.172;2023-06-04T15:20:37;24.70;56.10
24382;DHT22;12502;50.678;7.172;2023-06-04T15:25:38;24.70;56.40
24382;DHT22;12502;50.678;7.172;2023-06-04T15:30:40;24.40;57.50
24382;DHT22;12502;50.678;7.172;2023-06-04T15:35:42;24.60;57.60
24382;DHT22;12502;50.678;7.172;2023-06-04T15:40:43;24.40;57.60
24382;DHT22;12502;50.678;7.172;2023-06-04T15:45:45;24.40;57.40
24382;DHT22;12502;50.678;7.172;2023-06-04T15:50:47;24.30;56.90
24382;DHT22;12502;50.678;7.172;2023-06-04T15:55:49;24.50;58.70
24382;DHT22;12502;50.678;7.172;2023-06-04T16:00:51;24.60;58.10
24382;DHT22;12502;50.678;7.172;2023-06-04T16:05:52;24.50;58.10
24382;DHT22;12502;50.678;7.172;2023-06-04T16:10:54;24.70;58.70
24382;DHT22;12502;50.678;7.172;2023-06-04T16:15:56;24.40;58.00
24382;DHT22;12502;50.678;7.172;2023-06-04T16:20:57;24.30;57.30
24382;DHT22;12502;50.678;7.172;2023-06-04T16:25:59;24.30;58.40
24382;DHT22;12502;50.678;7.172;2023-06-04T16:31:01;24.30;58.70
24382;DHT22;12502;50.678;7.172;2023-06-04T16:36:03;24.40;60.80
24382;DHT22;12502;50.678;7.172;2023-06-04T16:41:04;24.30;59.20
24382;DHT22;12502;50.678;7.172;2023-06-04T16:46:06;24.20;58.70
24382;DHT22;12502;50.678;7.172;2023-06-04T16:51:08;24.00;58.90
24382;DHT22;12502;50.678;7.172;2023-06-04T16:56:10;24.00;59.00
24382;DHT22;12502;50.678;7.172;2023-06-04T17:01:12;24.00;57.90
24382;DHT22;12502;50.678;7.172;2023-06-04T17:06:13;23.90;60.90
24382;DHT22;12502;50.678;7.172;2023-06-04T17:11:15;24.00;58.00
24382;DHT22;12502;50.678;7.172;2023-06-04T17:16:17;24.00;57.30
24382;DHT22;12502;50.678;7.172;2023-06-04T17:21:18;23.90;58.40
24382;DHT22;12502;50.678;7.172;2023-06-04T17:26:20;23.80;60.50
24382;DHT22;12502;50.678;7.172;2023-06-04T17:31:24;23.70;61.20
24382;DHT22;12502;50.678;7.172;2023-06-04T17:36:26;23.70;59.30
24382;DHT22;12502;50.678;7.172;2023-06-04T17:41:28;23.70;60.00
24382;DHT22;12502;50.678;7.172;2023-06-04T17:46:35;23.60;64.10
24382;DHT22;12502;50.678;7.172;2023-06-04T17:51:36;23.40;66.40
24382;DHT22;12502;50.678;7.172;2023-06-04T17:56:38;23.30;65.70
24382;DHT22;12502;50.678;7.172;2023-06-04T18:01:40;23.30;66.30
24382;DHT22;12502;50.678;7.172;2023-06-04T18:06:41;23.10;67.00
24382;DHT22;12502;50.678;7.172;2023-06-04T18:11:43;23.00;67.70
24382;DHT22;12502;50.678;7.172;2023-06-04T18:16:45;22.80;67.60
24382;DHT22;12502;50.678;7.172;2023-06-04T18:21:46;22.70;68.50
24382;DHT22;12502;50.678;7.172;2023-06-04T18:26:48;22.60;69.00
24382;DHT22;12502;50.678;7.172;2023-06-04T18:31:50;22.50;69.80
24382;DHT22;12502;50.678;7.172;2023-06-04T18:36:52;22.50;69.30
24382;DHT22;12502;50.678;7.172;2023-06-04T18:41:54;22.40;68.70
24382;DHT22;12502;50.678;7.172;2023-06-04T18:46:56;22.30;69.50
24382;DHT22;12502;50.678;7.172;2023-06-04T18:51:58;22.20;69.80
24382;DHT22;12502;50.678;7.172;2023-06-04T18:57:00;21.90;70.50
24382;DHT22;12502;50.678;7.172;2023-06-04T19:02:02;21.80;71.10
24382;DHT22;12502;50.678;7.172;2023-06-04T19:07:04;21.60;71.40
24382;DHT22;12502;50.678;7.172;2023-06-04T19:12:06;21.50;71.70
24382;DHT22;12502;50.678;7.172;2023-06-04T19:17:08;21.30;73.00
24382;DHT22;12502;50.678;7.172;2023-06-04T19:22:09;21.10;73.00
24382;DHT22;12502;50.678;7.172;2023-06-04T19:27:11;20.90;74.40
24382;DHT22;12502;50.678;7.172;2023-06-04T19:32:13;20.70;75.00
24382;DHT22;12502;50.678;7.172;2023-06-04T19:37:15;20.50;75.60
24382;DHT22;12502;50.678;7.172;2023-06-04T19:42:17;20.40;76.30
24382;DHT22;12502;50.678;7.172;2023-06-04T19:47:19;20.30;76.80
24382;DHT22;12502;50.678;7.172;2023-06-04T19:52:21;20.20;77.20
24382;DHT22;12502;50.678;7.172;2023-06-04T19:57:22;20.00;78.60
24382;DHT22;12502;50.678;7.172;2023-06-04T20:02:24;19.90;78.90
24382;DHT22;12502;50.678;7.172;2023-06-04T20:07:28;19.80;77.90
24382;DHT22;12502;50.678;7.172;2023-06-04T20:12:31;19.80;78.90
24382;DHT22;12502;50.678;7.172;2023-06-04T20:17:33;19.70;79.10
24382;DHT22;12502;50.678;7.172;2023-06-04T20:22:35;19.60;80.00
24382;DHT22;12502;50.678;7.172;2023-06-04T20:27:36;19.60;79.60
24382;DHT22;12502;50.678;7.172;2023-06-04T20:32:38;19.30;80.20
24382;DHT22;12502;50.678;7.172;2023-06-04T20:37:40;19.50;79.30
24382;DHT22;12502;50.678;7.172;2023-06-04T20:42:42;19.30;81.30
24382;DHT22;12502;50.678;7.172;2023-06-04T20:47:43;19.10;81.60
24382;DHT22;12502;50.678;7.172;2023-06-04T20:52:45;19.00;82.20
24382;DHT22;12502;50.678;7.172;2023-06-04T20:57:47;18.90;82.60
24382;DHT22;12502;50.678;7.172;2023-06-04T21:02:49;18.80;83.80
24382;DHT22;12502;50.678;7.172;2023-06-04T21:07:50;18.70;82.50
24382;DHT22;12502;50.678;7.172;2023-06-04T21:12:52;18.80;82.00
24382;DHT22;12502;50.678;7.172;2023-06-04T21:17:54;18.80;82.70
24382;DHT22;12502;50.678;7.172;2023-06-04T21:22:55;18.80;82.10
24382;DHT22;12502;50.678;7.172;2023-06-04T21:27:57;18.70;82.20
24382;DHT22;12502;50.678;7.172;2023-06-04T21:32:59;18.60;82.50
24382;DHT22;12502;50.678;7.172;2023-06-04T21:38:01;18.60;83.40
24382;DHT22;12502;50.678;7.172;2023-06-04T21:43:02;18.40;85.10
24382;DHT22;12502;50.678;7.172;2023-06-04T21:48:04;18.20;86.50
24382;DHT22;12502;50.678;7.172;2023-06-04T21:53:06;18.00;88.30
24382;DHT22;12502;50.678;7.172;2023-06-04T21:58:08;17.70;88.90
24382;DHT22;12502;50.678;7.172;2023-06-04T22:03:09;17.40;90.40
24382;DHT22;12502;50.678;7.172;2023-06-04T22:08:11;17.20;91.80
24382;DHT22;12502;50.678;7.172;2023-06-04T22:13:14;17.10;92.90
24382;DHT22;12502;50.678;7.172;2023-06-04T22:18:16;16.90;94.60
24382;DHT22;12502;50.678;7.172;2023-06-04T22:23:18;16.60;96.40
24382;DHT22;12502;50.678;7.172;2023-06-04T22:28:20;16.30;98.20
24382;DHT22;12502;50.678;7.172;2023-06-04T22:33:21;16.20;99.90
24382;DHT22;12502;50.678;7.172;2023-06-04T22:38:23;16.20;99.90
24382;DHT22;12502;50.678;7.172;2023-06-04T22:43:25;15.90;99.90
24382;DHT22;12502;50.678;7.172;2023-06-04T22:48:28;15.70;99.90
24382;DHT22;12502;50.678;7.172;2023-06-04T22:53:30;16.10;99.90
24382;DHT22;12502;50.678;7.172;2023-06-04T22:58:32;16.00;99.90
24382;DHT22;12502;50.678;7.172;2023-06-04T23:03:33;16.00;99.90
24382;DHT22;12502;50.678;7.172;2023-06-04T23:08:35;15.80;99.90
24382;DHT22;12502;50.678;7.172;2023-06-04T23:13:37;15.90;99.90
24382;DHT22;12502;50.678;7.172;2023-06-04T23:18:39;15.60;99.90
24382;DHT22;12502;50.678;7.172;2023-06-04T23:23:42;15.60;99.90
24382;DHT22;12502;50.678;7.172;2023-06-04T23:28:44;15.60;99.90
24382;DHT22;12502;50.678;7.172;2023-06-04T23:33:45;15.40;99.90
24382;DHT22;12502;50.678;7.172;2023-06-04T23:38:49;15.30;99.90
24382;DHT22;12502;50.678;7.172;2023-06-04T23:43:51;15.20;99.90
24382;DHT22;12502;50.678;7.172;2023-06-04T23:48:52;15.10;99.90
24382;DHT22;12502;50.678;7.172;2023-06-04T23:53:54;15.00;99.90
24382;DHT22;12502;50.678;7.172;2023-06-04T23:58:56;15.00;99.90
